sensor_id;sensor_type;location;lat;lon;timestamp;P1;durP1;ratioP1;P2;durP2;ratioP2
18716;SDS011;9487;50.892;6.906;2022-10-16T00:00:35;3.00;;;2.70;;
18716;SDS011;9487;50.892;6.906;2022-10-16T00:03:03;3.83;;;3.20;;
18716;SDS011;9487;50.892;6.906;2022-10-16T00:05:29;4.07;;;3.37;;
18716;SDS011;9487;50.892;6.906;2022-10-16T00:07:56;4.23;;;3.83;;
18716;SDS011;9487;50.892;6.906;2022-10-16T00:10:25;3.83;;;2.93;;
18716;SDS011;9487;50.892;6.906;2022-10-16T00:12:51;2.90;;;2.70;;
18716;SDS011;9487;50.892;6.906;2022-10-16T00:15:18;2.83;;;2.57;;
18716;SDS011;9487;50.892;6.906;2022-10-16T00:17:45;3.20;;;2.67;;
18716;SDS011;9487;50.892;6.906;2022-10-16T00:20:12;2.60;;;2.40;;
18716;SDS011;9487;50.892;6.906;2022-10-16T00:22:38;2.60;;;2.40;;
18716;SDS011;9487;50.892;6.906;2022-10-16T00:25:06;3.47;;;2.40;;
18716;SDS011;9487;50.892;6.906;2022-10-16T00:27:35;2.60;;;2.20;;
18716;SDS011;9487;50.892;6.906;2022-10-16T00:30:02;2.67;;;2.37;;
18716;SDS011;9487;50.892;6.906;2022-10-16T00:32:29;2.60;;;2.17;;
18716;SDS011;9487;50.892;6.906;2022-10-16T00:34:56;2.30;;;2.10;;
18716;SDS011;9487;50.892;6.906;2022-10-16T00:37:22;4.80;;;2.67;;
18716;SDS011;9487;50.892;6.906;2022-10-16T00:39:49;2.30;;;2.10;;
18716;SDS011;9487;50.892;6.906;2022-10-16T00:42:17;4.27;;;2.23;;
18716;SDS011;9487;50.892;6.906;2022-10-16T00:44:47;2.23;;;1.80;;
18716;SDS011;9487;50.892;6.906;2022-10-16T00:47:18;2.57;;;2.17;;
18716;SDS011;9487;50.892;6.906;2022-10-16T00:49:49;2.10;;;1.90;;
18716;SDS011;9487;50.892;6.906;2022-10-16T00:52:17;2.97;;;1.90;;
18716;SDS011;9487;50.892;6.906;2022-10-16T00:54:45;2.93;;;1.73;;
18716;SDS011;9487;50.892;6.906;2022-10-16T00:57:13;1.93;;;1.73;;
18716;SDS011;9487;50.892;6.906;2022-10-16T00:59:40;3.27;;;2.07;;
18716;SDS011;9487;50.892;6.906;2022-10-16T01:02:11;2.50;;;1.90;;
18716;SDS011;9487;50.892;6.906;2022-10-16T01:04:40;1.70;;;1.60;;
18716;SDS011;9487;50.892;6.906;2022-10-16T01:07:10;1.70;;;1.60;;
18716;SDS011;9487;50.892;6.906;2022-10-16T01:09:46;2.50;;;2.00;;
18716;SDS011;9487;50.892;6.906;2022-10-16T01:12:20;2.47;;;1.60;;
18716;SDS011;9487;50.892;6.906;2022-10-16T01:14:56;2.73;;;1.70;;
18716;SDS011;9487;50.892;6.906;2022-10-16T01:17:28;1.70;;;1.60;;
18716;SDS011;9487;50.892;6.906;2022-10-16T01:20:03;3.00;;;1.60;;
18716;SDS011;9487;50.892;6.906;2022-10-16T01:22:38;2.03;;;1.60;;
18716;SDS011;9487;50.892;6.906;2022-10-16T01:25:16;2.10;;;1.50;;
18716;SDS011;9487;50.892;6.906;2022-10-16T01:27:52;2.47;;;2.00;;
18716;SDS011;9487;50.892;6.906;2022-10-16T01:30:21;2.70;;;1.80;;
18716;SDS011;9487;50.892;6.906;2022-10-16T01:32:52;1.80;;;1.57;;
18716;SDS011;9487;50.892;6.906;2022-10-16T01:35:23;2.40;;;1.73;;
18716;SDS011;9487;50.892;6.906;2022-10-16T01:37:54;3.07;;;1.90;;
18716;SDS011;9487;50.892;6.906;2022-10-16T01:40:26;2.37;;;1.90;;
18716;SDS011;9487;50.892;6.906;2022-10-16T01:42:56;4.50;;;1.93;;
18716;SDS011;9487;50.892;6.906;2022-10-16T01:45:27;2.10;;;1.70;;
18716;SDS011;9487;50.892;6.906;2022-10-16T01:47:56;1.60;;;1.50;;
18716;SDS011;9487;50.892;6.906;2022-10-16T01:50:24;3.30;;;1.90;;
18716;SDS011;9487;50.892;6.906;2022-10-16T01:52:52;2.47;;;1.87;;
18716;SDS011;9487;50.892;6.906;2022-10-16T01:55:24;3.13;;;1.90;;
18716;SDS011;9487;50.892;6.906;2022-10-16T01:57:55;2.10;;;1.90;;
18716;SDS011;9487;50.892;6.906;2022-10-16T02:00:24;2.53;;;1.73;;
18716;SDS011;9487;50.892;6.906;2022-10-16T02:02:53;2.17;;;1.90;;
18716;SDS011;9487;50.892;6.906;2022-10-16T02:05:22;2.53;;;2.00;;
18716;SDS011;9487;50.892;6.906;2022-10-16T02:07:52;2.20;;;2.00;;
18716;SDS011;9487;50.892;6.906;2022-10-16T02:10:19;2.33;;;1.97;;
18716;SDS011;9487;50.892;6.906;2022-10-16T02:12:48;3.47;;;2.40;;
18716;SDS011;9487;50.892;6.906;2022-10-16T02:15:25;3.60;;;2.47;;
18716;SDS011;9487;50.892;6.906;2022-10-16T02:17:52;2.60;;;2.40;;
18716;SDS011;9487;50.892;6.906;2022-10-16T02:20:19;3.13;;;2.50;;
18716;SDS011;9487;50.892;6.906;2022-10-16T02:22:51;2.90;;;2.37;;
18716;SDS011;9487;50.892;6.906;2022-10-16T02:25:20;2.10;;;2.00;;
18716;SDS011;9487;50.892;6.906;2022-10-16T02:27:52;2.73;;;2.53;;
18716;SDS011;9487;50.892;6.906;2022-10-16T02:30:23;2.77;;;2.43;;
18716;SDS011;9487;50.892;6.906;2022-10-16T02:32:54;2.70;;;2.50;;
18716;SDS011;9487;50.892;6.906;2022-10-16T02:35:23;2.40;;;2.20;;
18716;SDS011;9487;50.892;6.906;2022-10-16T02:37:52;2.70;;;2.50;;
18716;SDS011;9487;50.892;6.906;2022-10-16T02:40:19;3.37;;;2.10;;
18716;SDS011;9487;50.892;6.906;2022-10-16T02:42:49;2.70;;;2.50;;
18716;SDS011;9487;50.892;6.906;2022-10-16T02:45:18;4.37;;;2.40;;
18716;SDS011;9487;50.892;6.906;2022-10-16T02:47:46;2.53;;;2.33;;
18716;SDS011;9487;50.892;6.906;2022-10-16T02:50:13;3.00;;;2.30;;
18716;SDS011;9487;50.892;6.906;2022-10-16T02:52:40;2.87;;;2.20;;
18716;SDS011;9487;50.892;6.906;2022-10-16T02:55:07;2.53;;;2.30;;
18716;SDS011;9487;50.892;6.906;2022-10-16T02:57:34;4.00;;;2.20;;
18716;SDS011;9487;50.892;6.906;2022-10-16T03:00:02;2.30;;;2.10;;
18716;SDS011;9487;50.892;6.906;2022-10-16T03:02:29;2.00;;;1.90;;
18716;SDS011;9487;50.892;6.906;2022-10-16T03:04:57;2.17;;;2.07;;
18716;SDS011;9487;50.892;6.906;2022-10-16T03:07:24;2.13;;;2.03;;
18716;SDS011;9487;50.892;6.906;2022-10-16T03:09:51;3.30;;;2.27;;
18716;SDS011;9487;50.892;6.906;2022-10-16T03:12:19;3.27;;;2.60;;
18716;SDS011;9487;50.892;6.906;2022-10-16T03:14:46;3.10;;;2.77;;
18716;SDS011;9487;50.892;6.906;2022-10-16T03:17:13;3.23;;;2.93;;
18716;SDS011;9487;50.892;6.906;2022-10-16T03:19:41;2.77;;;2.53;;
18716;SDS011;9487;50.892;6.906;2022-10-16T03:22:09;3.43;;;2.43;;
18716;SDS011;9487;50.892;6.906;2022-10-16T03:24:36;3.33;;;2.40;;
18716;SDS011;9487;50.892;6.906;2022-10-16T03:27:03;2.83;;;2.00;;
18716;SDS011;9487;50.892;6.906;2022-10-16T03:29:30;2.57;;;2.37;;
18716;SDS011;9487;50.892;6.906;2022-10-16T03:31:58;3.43;;;2.40;;
18716;SDS011;9487;50.892;6.906;2022-10-16T03:34:25;2.20;;;2.00;;
18716;SDS011;9487;50.892;6.906;2022-10-16T03:36:52;2.43;;;1.70;;
18716;SDS011;9487;50.892;6.906;2022-10-16T03:39:21;1.70;;;1.60;;
18716;SDS011;9487;50.892;6.906;2022-10-16T03:41:48;2.00;;;1.67;;
18716;SDS011;9487;50.892;6.906;2022-10-16T03:44:14;2.97;;;1.83;;
18716;SDS011;9487;50.892;6.906;2022-10-16T03:46:41;2.27;;;1.50;;
18716;SDS011;9487;50.892;6.906;2022-10-16T03:49:08;2.53;;;1.47;;
18716;SDS011;9487;50.892;6.906;2022-10-16T03:51:35;1.40;;;1.30;;
18716;SDS011;9487;50.892;6.906;2022-10-16T03:54:02;1.50;;;1.40;;
18716;SDS011;9487;50.892;6.906;2022-10-16T03:56:30;2.17;;;1.30;;
18716;SDS011;9487;50.892;6.906;2022-10-16T03:58:57;1.57;;;1.40;;
18716;SDS011;9487;50.892;6.906;2022-10-16T04:01:24;1.43;;;1.30;;
18716;SDS011;9487;50.892;6.906;2022-10-16T04:03:50;2.93;;;2.10;;
18716;SDS011;9487;50.892;6.906;2022-10-16T04:06:17;1.60;;;1.50;;
18716;SDS011;9487;50.892;6.906;2022-10-16T04:08:44;1.67;;;1.57;;
18716;SDS011;9487;50.892;6.906;2022-10-16T04:11:11;1.60;;;1.50;;
18716;SDS011;9487;50.892;6.906;2022-10-16T04:13:39;3.47;;;1.50;;
18716;SDS011;9487;50.892;6.906;2022-10-16T04:16:06;3.77;;;1.60;;
18716;SDS011;9487;50.892;6.906;2022-10-16T04:18:33;2.93;;;1.70;;
18716;SDS011;9487;50.892;6.906;2022-10-16T04:21:02;2.03;;;1.60;;
18716;SDS011;9487;50.892;6.906;2022-10-16T04:23:29;1.43;;;1.33;;
18716;SDS011;9487;50.892;6.906;2022-10-16T04:25:56;1.80;;;1.63;;
18716;SDS011;9487;50.892;6.906;2022-10-16T04:28:22;1.67;;;1.57;;
18716;SDS011;9487;50.892;6.906;2022-10-16T04:30:51;2.03;;;1.53;;
18716;SDS011;9487;50.892;6.906;2022-10-16T04:33:17;3.17;;;1.70;;
18716;SDS011;9487;50.892;6.906;2022-10-16T04:35:44;2.80;;;1.70;;
18716;SDS011;9487;50.892;6.906;2022-10-16T04:38:11;1.83;;;1.40;;
18716;SDS011;9487;50.892;6.906;2022-10-16T04:40:38;2.63;;;1.50;;
18716;SDS011;9487;50.892;6.906;2022-10-16T04:43:05;2.30;;;1.73;;
18716;SDS011;9487;50.892;6.906;2022-10-16T04:45:32;2.50;;;1.70;;
18716;SDS011;9487;50.892;6.906;2022-10-16T04:48:00;2.70;;;1.90;;
18716;SDS011;9487;50.892;6.906;2022-10-16T04:50:27;2.43;;;1.80;;
18716;SDS011;9487;50.892;6.906;2022-10-16T04:52:54;2.13;;;1.67;;
18716;SDS011;9487;50.892;6.906;2022-10-16T04:55:20;3.00;;;1.50;;
18716;SDS011;9487;50.892;6.906;2022-10-16T04:57:47;1.63;;;1.53;;
18716;SDS011;9487;50.892;6.906;2022-10-16T05:00:14;1.20;;;1.10;;
18716;SDS011;9487;50.892;6.906;2022-10-16T05:02:41;2.27;;;1.40;;
18716;SDS011;9487;50.892;6.906;2022-10-16T05:05:09;1.93;;;1.70;;
18716;SDS011;9487;50.892;6.906;2022-10-16T05:07:36;3.83;;;1.30;;
18716;SDS011;9487;50.892;6.906;2022-10-16T05:10:03;2.57;;;1.50;;
18716;SDS011;9487;50.892;6.906;2022-10-16T05:12:31;3.33;;;1.63;;
18716;SDS011;9487;50.892;6.906;2022-10-16T05:14:58;3.60;;;1.40;;
18716;SDS011;9487;50.892;6.906;2022-10-16T05:17:25;1.30;;;1.20;;
18716;SDS011;9487;50.892;6.906;2022-10-16T05:19:51;1.93;;;1.37;;
18716;SDS011;9487;50.892;6.906;2022-10-16T05:22:20;2.23;;;1.33;;
18716;SDS011;9487;50.892;6.906;2022-10-16T05:24:47;1.20;;;1.10;;
18716;SDS011;9487;50.892;6.906;2022-10-16T05:27:14;1.83;;;1.30;;
18716;SDS011;9487;50.892;6.906;2022-10-16T05:29:44;1.60;;;1.40;;
18716;SDS011;9487;50.892;6.906;2022-10-16T05:32:11;2.50;;;1.50;;
18716;SDS011;9487;50.892;6.906;2022-10-16T05:34:38;1.40;;;1.30;;
18716;SDS011;9487;50.892;6.906;2022-10-16T05:37:05;1.80;;;1.33;;
18716;SDS011;9487;50.892;6.906;2022-10-16T05:39:34;1.40;;;1.30;;
18716;SDS011;9487;50.892;6.906;2022-10-16T05:42:01;1.87;;;1.20;;
18716;SDS011;9487;50.892;6.906;2022-10-16T05:44:28;1.10;;;1.00;;
18716;SDS011;9487;50.892;6.906;2022-10-16T05:46:55;1.40;;;1.30;;
18716;SDS011;9487;50.892;6.906;2022-10-16T05:49:22;2.27;;;1.30;;
18716;SDS011;9487;50.892;6.906;2022-10-16T05:51:49;2.03;;;1.40;;
18716;SDS011;9487;50.892;6.906;2022-10-16T05:54:16;1.50;;;1.40;;
18716;SDS011;9487;50.892;6.906;2022-10-16T05:56:44;1.70;;;1.50;;
18716;SDS011;9487;50.892;6.906;2022-10-16T05:59:11;2.80;;;1.60;;
18716;SDS011;9487;50.892;6.906;2022-10-16T06:01:37;1.67;;;1.57;;
18716;SDS011;9487;50.892;6.906;2022-10-16T06:04:04;1.70;;;1.60;;
18716;SDS011;9487;50.892;6.906;2022-10-16T06:06:31;2.13;;;1.63;;
18716;SDS011;9487;50.892;6.906;2022-10-16T06:08:58;1.80;;;1.70;;
18716;SDS011;9487;50.892;6.906;2022-10-16T06:11:25;2.07;;;1.40;;
18716;SDS011;9487;50.892;6.906;2022-10-16T06:13:55;3.33;;;1.47;;
18716;SDS011;9487;50.892;6.906;2022-10-16T06:16:23;2.13;;;2.00;;
18716;SDS011;9487;50.892;6.906;2022-10-16T06:18:51;2.47;;;2.27;;
18716;SDS011;9487;50.892;6.906;2022-10-16T06:21:19;2.40;;;2.20;;
18716;SDS011;9487;50.892;6.906;2022-10-16T06:23:49;2.57;;;2.23;;
18716;SDS011;9487;50.892;6.906;2022-10-16T06:26:18;2.83;;;2.20;;
18716;SDS011;9487;50.892;6.906;2022-10-16T06:28:47;3.50;;;2.50;;
18716;SDS011;9487;50.892;6.906;2022-10-16T06:31:15;2.60;;;2.40;;
18716;SDS011;9487;50.892;6.906;2022-10-16T06:33:43;3.87;;;2.27;;
18716;SDS011;9487;50.892;6.906;2022-10-16T06:36:11;3.33;;;2.30;;
18716;SDS011;9487;50.892;6.906;2022-10-16T06:38:39;3.43;;;1.80;;
18716;SDS011;9487;50.892;6.906;2022-10-16T06:41:07;2.57;;;1.93;;
18716;SDS011;9487;50.892;6.906;2022-10-16T06:43:35;1.97;;;1.87;;
18716;SDS011;9487;50.892;6.906;2022-10-16T06:46:02;3.13;;;2.07;;
18716;SDS011;9487;50.892;6.906;2022-10-16T06:48:31;3.10;;;1.97;;
18716;SDS011;9487;50.892;6.906;2022-10-16T06:50:58;2.73;;;2.10;;
18716;SDS011;9487;50.892;6.906;2022-10-16T06:53:27;4.80;;;2.00;;
18716;SDS011;9487;50.892;6.906;2022-10-16T06:55:55;1.80;;;1.70;;
18716;SDS011;9487;50.892;6.906;2022-10-16T06:58:22;2.87;;;2.10;;
18716;SDS011;9487;50.892;6.906;2022-10-16T07:00:54;2.57;;;2.20;;
18716;SDS011;9487;50.892;6.906;2022-10-16T07:03:22;3.20;;;2.50;;
18716;SDS011;9487;50.892;6.906;2022-10-16T07:05:51;3.27;;;2.10;;
18716;SDS011;9487;50.892;6.906;2022-10-16T07:08:17;2.10;;;1.97;;
18716;SDS011;9487;50.892;6.906;2022-10-16T07:10:44;2.53;;;1.93;;
18716;SDS011;9487;50.892;6.906;2022-10-16T07:13:11;3.10;;;2.00;;
18716;SDS011;9487;50.892;6.906;2022-10-16T07:15:39;3.37;;;2.37;;
18716;SDS011;9487;50.892;6.906;2022-10-16T07:18:06;2.40;;;2.07;;
18716;SDS011;9487;50.892;6.906;2022-10-16T07:20:33;2.53;;;2.10;;
18716;SDS011;9487;50.892;6.906;2022-10-16T07:23:01;1.93;;;1.80;;
18716;SDS011;9487;50.892;6.906;2022-10-16T07:25:28;3.57;;;2.00;;
18716;SDS011;9487;50.892;6.906;2022-10-16T07:27:54;2.63;;;1.80;;
18716;SDS011;9487;50.892;6.906;2022-10-16T07:30:21;1.80;;;1.60;;
18716;SDS011;9487;50.892;6.906;2022-10-16T07:32:49;2.53;;;2.30;;
18716;SDS011;9487;50.892;6.906;2022-10-16T07:35:15;1.97;;;1.87;;
18716;SDS011;9487;50.892;6.906;2022-10-16T07:37:44;3.27;;;2.30;;
18716;SDS011;9487;50.892;6.906;2022-10-16T07:40:12;3.10;;;2.30;;
18716;SDS011;9487;50.892;6.906;2022-10-16T07:42:39;3.20;;;2.30;;
18716;SDS011;9487;50.892;6.906;2022-10-16T07:45:06;2.07;;;1.87;;
18716;SDS011;9487;50.892;6.906;2022-10-16T07:47:34;3.40;;;2.07;;
18716;SDS011;9487;50.892;6.906;2022-10-16T07:50:00;3.57;;;2.30;;
18716;SDS011;9487;50.892;6.906;2022-10-16T07:52:27;3.23;;;2.27;;
18716;SDS011;9487;50.892;6.906;2022-10-16T07:54:54;3.90;;;2.50;;
18716;SDS011;9487;50.892;6.906;2022-10-16T07:57:22;2.60;;;2.40;;
18716;SDS011;9487;50.892;6.906;2022-10-16T07:59:49;5.00;;;2.40;;
18716;SDS011;9487;50.892;6.906;2022-10-16T08:02:16;2.67;;;1.87;;
18716;SDS011;9487;50.892;6.906;2022-10-16T08:04:43;2.50;;;2.13;;
18716;SDS011;9487;50.892;6.906;2022-10-16T08:07:12;3.60;;;2.00;;
18716;SDS011;9487;50.892;6.906;2022-10-16T08:09:39;2.10;;;2.00;;
18716;SDS011;9487;50.892;6.906;2022-10-16T08:12:05;2.13;;;1.87;;
18716;SDS011;9487;50.892;6.906;2022-10-16T08:14:36;4.13;;;2.10;;
18716;SDS011;9487;50.892;6.906;2022-10-16T08:17:03;2.17;;;1.90;;
18716;SDS011;9487;50.892;6.906;2022-10-16T08:19:30;3.67;;;1.60;;
18716;SDS011;9487;50.892;6.906;2022-10-16T08:21:59;4.87;;;2.03;;
18716;SDS011;9487;50.892;6.906;2022-10-16T08:24:26;3.33;;;1.93;;
18716;SDS011;9487;50.892;6.906;2022-10-16T08:26:55;1.60;;;1.50;;
18716;SDS011;9487;50.892;6.906;2022-10-16T08:29:22;4.37;;;1.70;;
18716;SDS011;9487;50.892;6.906;2022-10-16T08:31:50;2.13;;;1.73;;
18716;SDS011;9487;50.892;6.906;2022-10-16T08:34:17;4.63;;;1.60;;
18716;SDS011;9487;50.892;6.906;2022-10-16T08:36:44;1.67;;;1.57;;
18716;SDS011;9487;50.892;6.906;2022-10-16T08:39:11;2.63;;;2.10;;
18716;SDS011;9487;50.892;6.906;2022-10-16T08:41:53;3.90;;;1.83;;
18716;SDS011;9487;50.892;6.906;2022-10-16T08:47:50;3.13;;;1.40;;
18716;SDS011;9487;50.892;6.906;2022-10-16T08:50:26;3.73;;;1.60;;
18716;SDS011;9487;50.892;6.906;2022-10-16T08:52:55;1.30;;;1.20;;
18716;SDS011;9487;50.892;6.906;2022-10-16T08:55:27;2.57;;;1.30;;
18716;SDS011;9487;50.892;6.906;2022-10-16T08:57:57;1.37;;;1.20;;
18716;SDS011;9487;50.892;6.906;2022-10-16T09:00:24;2.40;;;1.40;;
18716;SDS011;9487;50.892;6.906;2022-10-16T09:02:55;1.20;;;1.10;;
18716;SDS011;9487;50.892;6.906;2022-10-16T09:05:51;2.23;;;1.40;;
18716;SDS011;9487;50.892;6.906;2022-10-16T09:08:26;2.63;;;1.30;;
18716;SDS011;9487;50.892;6.906;2022-10-16T09:11:03;1.67;;;1.10;;
18716;SDS011;9487;50.892;6.906;2022-10-16T09:13:43;1.87;;;1.33;;
18716;SDS011;9487;50.892;6.906;2022-10-16T09:16:17;3.37;;;1.40;;
18716;SDS011;9487;50.892;6.906;2022-10-16T09:18:51;2.20;;;0.80;;
18716;SDS011;9487;50.892;6.906;2022-10-16T09:21:25;1.97;;;1.00;;
18716;SDS011;9487;50.892;6.906;2022-10-16T09:23:56;1.53;;;0.70;;
18716;SDS011;9487;50.892;6.906;2022-10-16T09:26:24;2.10;;;0.90;;
18716;SDS011;9487;50.892;6.906;2022-10-16T09:28:51;2.13;;;0.80;;
18716;SDS011;9487;50.892;6.906;2022-10-16T09:31:19;0.97;;;0.80;;
18716;SDS011;9487;50.892;6.906;2022-10-16T09:33:48;2.20;;;0.80;;
18716;SDS011;9487;50.892;6.906;2022-10-16T09:36:19;0.90;;;0.80;;
18716;SDS011;9487;50.892;6.906;2022-10-16T09:38:47;1.43;;;0.90;;
18716;SDS011;9487;50.892;6.906;2022-10-16T09:41:16;1.90;;;0.60;;
18716;SDS011;9487;50.892;6.906;2022-10-16T09:43:48;1.40;;;0.77;;
18716;SDS011;9487;50.892;6.906;2022-10-16T09:46:21;1.97;;;0.90;;
18716;SDS011;9487;50.892;6.906;2022-10-16T09:48:53;1.67;;;0.90;;
18716;SDS011;9487;50.892;6.906;2022-10-16T09:51:23;2.10;;;1.00;;
18716;SDS011;9487;50.892;6.906;2022-10-16T09:53:54;1.40;;;0.80;;
18716;SDS011;9487;50.892;6.906;2022-10-16T09:56:23;1.03;;;0.87;;
18716;SDS011;9487;50.892;6.906;2022-10-16T09:58:52;2.00;;;0.70;;
18716;SDS011;9487;50.892;6.906;2022-10-16T10:01:20;1.23;;;0.77;;
18716;SDS011;9487;50.892;6.906;2022-10-16T10:03:50;2.90;;;0.80;;
18716;SDS011;9487;50.892;6.906;2022-10-16T10:06:28;0.90;;;0.80;;
18716;SDS011;9487;50.892;6.906;2022-10-16T10:08:57;2.40;;;0.80;;
18716;SDS011;9487;50.892;6.906;2022-10-16T10:11:36;2.77;;;0.87;;
18716;SDS011;9487;50.892;6.906;2022-10-16T10:14:09;1.20;;;0.77;;
18716;SDS011;9487;50.892;6.906;2022-10-16T10:16:47;0.80;;;0.80;;
18716;SDS011;9487;50.892;6.906;2022-10-16T10:19:15;1.00;;;0.70;;
18716;SDS011;9487;50.892;6.906;2022-10-16T10:21:44;1.40;;;0.87;;
18716;SDS011;9487;50.892;6.906;2022-10-16T10:24:12;1.20;;;0.90;;
18716;SDS011;9487;50.892;6.906;2022-10-16T10:26:41;1.60;;;0.90;;
18716;SDS011;9487;50.892;6.906;2022-10-16T10:29:17;1.07;;;0.80;;
18716;SDS011;9487;50.892;6.906;2022-10-16T10:31:55;1.67;;;0.73;;
18716;SDS011;9487;50.892;6.906;2022-10-16T10:34:39;1.90;;;0.80;;
18716;SDS011;9487;50.892;6.906;2022-10-16T10:37:24;1.20;;;0.60;;
18716;SDS011;9487;50.892;6.906;2022-10-16T10:39:59;0.97;;;0.67;;
18716;SDS011;9487;50.892;6.906;2022-10-16T10:42:33;1.47;;;0.63;;
18716;SDS011;9487;50.892;6.906;2022-10-16T10:45:11;2.57;;;0.80;;
18716;SDS011;9487;50.892;6.906;2022-10-16T10:47:52;1.60;;;0.77;;
18716;SDS011;9487;50.892;6.906;2022-10-16T10:50:31;1.03;;;0.73;;
18716;SDS011;9487;50.892;6.906;2022-10-16T10:53:09;1.47;;;0.90;;
18716;SDS011;9487;50.892;6.906;2022-10-16T10:55:46;3.63;;;1.03;;
18716;SDS011;9487;50.892;6.906;2022-10-16T10:58:34;2.33;;;0.80;;
18716;SDS011;9487;50.892;6.906;2022-10-16T11:01:18;1.40;;;0.70;;
18716;SDS011;9487;50.892;6.906;2022-10-16T11:03:56;3.50;;;1.00;;
18716;SDS011;9487;50.892;6.906;2022-10-16T11:06:44;2.20;;;1.00;;
18716;SDS011;9487;50.892;6.906;2022-10-16T11:09:17;1.13;;;0.60;;
18716;SDS011;9487;50.892;6.906;2022-10-16T11:11:48;1.40;;;0.80;;
18716;SDS011;9487;50.892;6.906;2022-10-16T11:14:19;2.33;;;0.90;;
18716;SDS011;9487;50.892;6.906;2022-10-16T11:16:49;1.40;;;0.80;;
18716;SDS011;9487;50.892;6.906;2022-10-16T11:19:22;1.40;;;0.80;;
18716;SDS011;9487;50.892;6.906;2022-10-16T11:22:01;1.43;;;0.70;;
18716;SDS011;9487;50.892;6.906;2022-10-16T11:24:36;2.00;;;0.80;;
18716;SDS011;9487;50.892;6.906;2022-10-16T11:27:09;1.37;;;0.70;;
18716;SDS011;9487;50.892;6.906;2022-10-16T11:29:43;2.87;;;0.80;;
18716;SDS011;9487;50.892;6.906;2022-10-16T11:32:16;1.97;;;0.80;;
18716;SDS011;9487;50.892;6.906;2022-10-16T11:34:49;1.17;;;0.57;;
18716;SDS011;9487;50.892;6.906;2022-10-16T11:37:20;1.23;;;0.90;;
18716;SDS011;9487;50.892;6.906;2022-10-16T11:39:54;1.60;;;0.90;;
18716;SDS011;9487;50.892;6.906;2022-10-16T11:42:26;0.80;;;0.67;;
18716;SDS011;9487;50.892;6.906;2022-10-16T11:45:00;0.90;;;0.60;;
18716;SDS011;9487;50.892;6.906;2022-10-16T11:47:33;2.00;;;0.60;;
18716;SDS011;9487;50.892;6.906;2022-10-16T11:50:04;1.37;;;0.80;;
18716;SDS011;9487;50.892;6.906;2022-10-16T11:52:40;2.27;;;0.60;;
18716;SDS011;9487;50.892;6.906;2022-10-16T11:55:16;1.53;;;0.97;;
18716;SDS011;9487;50.892;6.906;2022-10-16T11:57:47;0.90;;;0.73;;
18716;SDS011;9487;50.892;6.906;2022-10-16T12:00:19;1.27;;;0.77;;
18716;SDS011;9487;50.892;6.906;2022-10-16T12:02:52;1.50;;;0.80;;
18716;SDS011;9487;50.892;6.906;2022-10-16T12:05:28;2.17;;;0.83;;
18716;SDS011;9487;50.892;6.906;2022-10-16T12:08:07;0.60;;;0.60;;
18716;SDS011;9487;50.892;6.906;2022-10-16T12:10:39;1.23;;;0.60;;
18716;SDS011;9487;50.892;6.906;2022-10-16T12:16:07;0.70;;;0.70;;
18716;SDS011;9487;50.892;6.906;2022-10-16T12:18:46;1.37;;;0.50;;
18716;SDS011;9487;50.892;6.906;2022-10-16T12:21:15;1.17;;;0.73;;
18716;SDS011;9487;50.892;6.906;2022-10-16T12:23:47;0.70;;;0.60;;
18716;SDS011;9487;50.892;6.906;2022-10-16T12:26:24;1.90;;;0.80;;
18716;SDS011;9487;50.892;6.906;2022-10-16T12:28:52;2.63;;;0.97;;
18716;SDS011;9487;50.892;6.906;2022-10-16T12:31:20;1.27;;;0.70;;
18716;SDS011;9487;50.892;6.906;2022-10-16T12:33:53;2.80;;;0.80;;
18716;SDS011;9487;50.892;6.906;2022-10-16T12:36:27;0.87;;;0.70;;
18716;SDS011;9487;50.892;6.906;2022-10-16T12:38:56;1.50;;;0.77;;
18716;SDS011;9487;50.892;6.906;2022-10-16T12:41:28;0.97;;;0.67;;
18716;SDS011;9487;50.892;6.906;2022-10-16T12:43:56;2.53;;;0.80;;
18716;SDS011;9487;50.892;6.906;2022-10-16T12:46:26;2.93;;;0.87;;
18716;SDS011;9487;50.892;6.906;2022-10-16T12:49:14;1.00;;;0.60;;
18716;SDS011;9487;50.892;6.906;2022-10-16T12:51:47;1.27;;;0.67;;
18716;SDS011;9487;50.892;6.906;2022-10-16T12:54:14;1.43;;;0.70;;
18716;SDS011;9487;50.892;6.906;2022-10-16T12:56:50;1.50;;;0.70;;
18716;SDS011;9487;50.892;6.906;2022-10-16T12:59:28;1.33;;;0.60;;
18716;SDS011;9487;50.892;6.906;2022-10-16T13:02:08;1.03;;;0.70;;
18716;SDS011;9487;50.892;6.906;2022-10-16T13:04:55;0.97;;;0.60;;
18716;SDS011;9487;50.892;6.906;2022-10-16T13:07:44;1.23;;;0.83;;
18716;SDS011;9487;50.892;6.906;2022-10-16T13:10:22;0.70;;;0.70;;
18716;SDS011;9487;50.892;6.906;2022-10-16T13:13:05;1.27;;;0.70;;
18716;SDS011;9487;50.892;6.906;2022-10-16T13:15:50;1.57;;;0.80;;
18716;SDS011;9487;50.892;6.906;2022-10-16T13:18:25;3.10;;;0.80;;
18716;SDS011;9487;50.892;6.906;2022-10-16T13:21:04;2.93;;;0.73;;
18716;SDS011;9487;50.892;6.906;2022-10-16T13:23:42;2.13;;;0.60;;
18716;SDS011;9487;50.892;6.906;2022-10-16T13:26:17;1.63;;;0.73;;
18716;SDS011;9487;50.892;6.906;2022-10-16T13:28:51;0.77;;;0.70;;
18716;SDS011;9487;50.892;6.906;2022-10-16T13:31:19;1.23;;;0.60;;
18716;SDS011;9487;50.892;6.906;2022-10-16T13:33:49;2.20;;;0.70;;
18716;SDS011;9487;50.892;6.906;2022-10-16T13:36:20;2.90;;;0.80;;
18716;SDS011;9487;50.892;6.906;2022-10-16T13:38:48;1.03;;;0.73;;
18716;SDS011;9487;50.892;6.906;2022-10-16T13:41:25;2.60;;;0.90;;
18716;SDS011;9487;50.892;6.906;2022-10-16T13:43:53;1.97;;;0.90;;
18716;SDS011;9487;50.892;6.906;2022-10-16T13:46:23;1.43;;;0.80;;
18716;SDS011;9487;50.892;6.906;2022-10-16T13:48:57;1.37;;;0.80;;
18716;SDS011;9487;50.892;6.906;2022-10-16T13:51:25;0.93;;;0.60;;
18716;SDS011;9487;50.892;6.906;2022-10-16T13:53:52;1.13;;;0.80;;
18716;SDS011;9487;50.892;6.906;2022-10-16T13:56:22;1.33;;;0.70;;
18716;SDS011;9487;50.892;6.906;2022-10-16T13:58:59;3.53;;;1.20;;
18716;SDS011;9487;50.892;6.906;2022-10-16T14:01:27;1.43;;;0.80;;
18716;SDS011;9487;50.892;6.906;2022-10-16T14:04:00;1.67;;;0.93;;
18716;SDS011;9487;50.892;6.906;2022-10-16T14:06:30;0.80;;;0.70;;
18716;SDS011;9487;50.892;6.906;2022-10-16T14:08:59;0.90;;;0.70;;
18716;SDS011;9487;50.892;6.906;2022-10-16T14:11:30;2.50;;;0.90;;
18716;SDS011;9487;50.892;6.906;2022-10-16T14:13:59;1.37;;;1.10;;
18716;SDS011;9487;50.892;6.906;2022-10-16T14:16:28;1.70;;;0.80;;
18716;SDS011;9487;50.892;6.906;2022-10-16T14:18:58;0.77;;;0.70;;
18716;SDS011;9487;50.892;6.906;2022-10-16T14:21:27;0.80;;;0.80;;
18716;SDS011;9487;50.892;6.906;2022-10-16T14:23:54;1.10;;;1.00;;
18716;SDS011;9487;50.892;6.906;2022-10-16T14:26:22;1.83;;;0.70;;
18716;SDS011;9487;50.892;6.906;2022-10-16T14:29:03;2.13;;;1.00;;
18716;SDS011;9487;50.892;6.906;2022-10-16T14:31:37;2.83;;;1.10;;
18716;SDS011;9487;50.892;6.906;2022-10-16T14:34:05;1.50;;;0.97;;
18716;SDS011;9487;50.892;6.906;2022-10-16T14:36:50;1.57;;;1.00;;
18716;SDS011;9487;50.892;6.906;2022-10-16T14:39:17;1.00;;;0.90;;
18716;SDS011;9487;50.892;6.906;2022-10-16T14:41:47;0.90;;;0.60;;
18716;SDS011;9487;50.892;6.906;2022-10-16T14:44:17;2.03;;;0.90;;
18716;SDS011;9487;50.892;6.906;2022-10-16T14:46:45;1.00;;;0.90;;
18716;SDS011;9487;50.892;6.906;2022-10-16T14:49:16;1.10;;;0.93;;
18716;SDS011;9487;50.892;6.906;2022-10-16T14:51:45;0.80;;;0.60;;
18716;SDS011;9487;50.892;6.906;2022-10-16T14:54:13;1.37;;;1.00;;
18716;SDS011;9487;50.892;6.906;2022-10-16T14:56:42;2.10;;;0.70;;
18716;SDS011;9487;50.892;6.906;2022-10-16T14:59:13;1.03;;;0.70;;
18716;SDS011;9487;50.892;6.906;2022-10-16T15:01:44;1.40;;;0.77;;
18716;SDS011;9487;50.892;6.906;2022-10-16T15:04:12;1.00;;;0.77;;
18716;SDS011;9487;50.892;6.906;2022-10-16T15:06:39;1.27;;;0.90;;
18716;SDS011;9487;50.892;6.906;2022-10-16T15:09:06;1.40;;;1.30;;
18716;SDS011;9487;50.892;6.906;2022-10-16T15:11:33;1.20;;;1.10;;
18716;SDS011;9487;50.892;6.906;2022-10-16T15:14:00;2.10;;;0.77;;
18716;SDS011;9487;50.892;6.906;2022-10-16T15:16:28;1.10;;;0.70;;
18716;SDS011;9487;50.892;6.906;2022-10-16T15:18:55;1.17;;;0.70;;
18716;SDS011;9487;50.892;6.906;2022-10-16T15:21:23;2.33;;;0.70;;
18716;SDS011;9487;50.892;6.906;2022-10-16T15:23:52;1.40;;;0.60;;